Green Cove Springs, Florida
Current Conditions -  °F | °C
As of 8:53 AM on Tuesday 27 Jan 2015 (Local Time) from KNIP Reporting Station
Clear Clear  
Wind Chill: 40°   Ceiling: Unl
Heat Index: 45°   Visibility: 10mi
Dew Point: 34°   Wind: 10mph
Humidity: 65%   Direction: 260°W
Pressure: 30"   Gusts: NA
Location:  29.99°N, 81.68°W
Report Text: KNIP 271353Z 26009KT 10SM CLR 07/01 A3000 RMK AO2 SLP153 T00720011 $
Loading
Personal Weather Stations






























Interactive Weather Map New forecast layout! Learn more

10-Day Weather Forecast

Advertisements
Track Severe Weather on mobile